< < Back
Terminal Aerodrome Forecast


Current Version              Previous Versions:   1  2  3  4  5  6  7  8  9  

Terminal Aerodrome Forecast

116
FTUS44 KBMX 030520
TAFTCL
TAF
KTCL 030520Z 0306/0406 34003KT P6SM BKN200
      TEMPO 0309/0313 4SM BR=

Latest METAR

777
SAUS70 KWBC 041256
MTRTCL
METAR KTCL 041253Z AUTO 00000KT 4SM BR CLR 23/22 A3002 RMK AO2 SLP164
T02330217


USA.gov is the U.S. government's official web portal to all federal, state and local government web resources and services.